This is the latest recevied weather packets stored in our database for station/object KQ4JKJ. If no packets are shown the sender has not sent any weather packets the latest 10 day(s).
| Time | Temp. | Humidity | Pressure | Rain* | Wind** | Luminosity | Snow |
|---|---|---|---|---|---|---|---|
| 1778084386 | 28.89° C | 73% | 1011.9 hPa | 0 mm | - | 606 W/m² | - |
| 1778084083 | 28.89° C | 74% | 1011.8 hPa | 0 mm | - | 566 W/m² | - |
| 1778083775 | 30° C | 71% | 1011.9 hPa | 0 mm | - | 644 W/m² | - |
| 1778083472 | 29.44° C | 72% | 1011.9 hPa | 0 mm | - | 619 W/m² | - |
| 1778083169 | 30° C | 71% | 1011.8 hPa | 0 mm | - | 724 W/m² | - |
| 1778082867 | 30° C | 72% | 1011.9 hPa | 0 mm | - | 612 W/m² | - |
| 1778081749 | 30° C | 70% | 1011.9 hPa | 0 mm | - | 628 W/m² | - |
| 1778081446 | 30° C | 70% | 1012 hPa | 0 mm | - | 658 W/m² | - |
| 1778081143 | 29.44° C | 71% | 1012.2 hPa | 0 mm | - | 658 W/m² | - |
| 1778080841 | 29.44° C | 72% | 1012.2 hPa | 0 mm | - | 640 W/m² | - |
| 1778080539 | 30° C | 71% | 1012 hPa | 0 mm | - | 613 W/m² | - |
| 1778080236 | 29.44° C | 70% | 1012 hPa | 0 mm | - | 662 W/m² | - |
| 1778079931 | 30° C | 69% | 1012.1 hPa | 0 mm | - | 586 W/m² | - |
| 1778079623 | 30° C | 71% | 1012.1 hPa | 0 mm | - | 612 W/m² | - |
| 1778079320 | 29.44° C | 73% | 1011.9 hPa | 0 mm | - | 607 W/m² | - |
| 1778079018 | 30° C | 70% | 1011.8 hPa | 0 mm | - | 590 W/m² | - |
| 1778078714 | 29.44° C | 71% | 1011.8 hPa | 0 mm | - | 580 W/m² | - |
| 1778078412 | 28.89° C | 73% | 1012 hPa | 0 mm | - | 550 W/m² | - |
| 1778078109 | 28.89° C | 74% | 1011.7 hPa | 0 mm | - | 556 W/m² | - |
| 1778077808 | 28.89° C | 75% | 1011.9 hPa | 0 mm | - | 538 W/m² | - |
| 1778077505 | 28.89° C | 75% | 1011.7 hPa | 0 mm | - | 515 W/m² | - |
| 1778077203 | 28.33° C | 75% | 1011.7 hPa | 0 mm | - | 523 W/m² | - |
| 1778076900 | 28.33° C | 74% | 1011.8 hPa | 0 mm | - | 507 W/m² | - |
| 1778076598 | 27.78° C | 76% | 1011.9 hPa | 0 mm | - | 459 W/m² | - |
| 1778076295 | 28.33° C | 77% | 1011.6 hPa | 0 mm | - | 364 W/m² | - |
* Rain latest hour (hover to see other rain measurements)
** Current wind speed in m/s (hover to see current wind gust speed)